KIAB/IAB METAR and TAF weather

Enter ICAO airport designator
Station Type Date Time Source
KIAB METAR 2019/02/20 17:24 UTC NOAA

KIAB 201724Z AUTO 23008KT 9SM SCT007 OVC016 M01/M03 A2983 RMK AO2 CIG 007V016 CIG 008 RWY19 SLP118


Station Type Date Time Source
KIAB Decoded METAR 2019/02/20 17:24 UTC NOAA

McConnell Air Force Base, KS, United States (KIAB) 37-37N 097-16W
Feb 20, 2019 - 12:24 PM EST / 2019.02.20 1724 UTC
Wind: from the SW (230 degrees) at 9 MPH (8 KT):0
Visibility: 9 mile(s):0
Sky conditions: overcast
Temperature: 30 F (-1 C)
Windchill: 21 F (-6 C):1
Dew Point: 26 F (-3 C)
Relative Humidity: 86%
Pressure (altimeter): 29.83 in. Hg (1010 hPa)
ob: KIAB 201724Z AUTO 23008KT 9SM SCT007 OVC016 M01/M03 A2983 RMK AO2 CIG 007V016 CIG 008 RWY19 SLP118
cycle: 17

Station Type Date Time Source
KIAB TAF 2019/02/20 10:06 UTC NOAA

TAF KIAB 201000Z 2010/2116 VRB06KT 6000 BR OVC004 640409 540609 QNH2976INS
TEMPO 2010/2015 4800 -SN BR
BECMG 2017/2018 VRB06KT 9999 NSW BKN030 620409 510023 QNH2981INS
BECMG 2022/2023 VRB06KT 9999 SKC QNH2982INS TX02/2020Z TNM04/2012Z


Example: see airport list